Time;durP1;ratioP1;P1;durP2;ratioP2;P2;SDS_P1;SDS_P2;PMS_P1;PMS_P2;Temp;Humidity;BMP_temperature;BMP_pressure;BME280_temperature;BME280_humidity;BME280_pressure;Samples;Min_cycle;Max_cycle;Signal;HPM_P1;HPM_P2
2022/01/13 00:02:03;;;;;;;44.83;28.23;;;9.00;80.20;;;;;;4952068;28;20030;-76
2022/01/13 00:04:29;;;;;;;41.13;26.90;;;9.00;80.10;;;;;;4969459;28;20026;-76
2022/01/13 00:06:54;;;;;;;42.20;27.25;;;9.00;80.20;;;;;;4952348;28;20735;-76
2022/01/13 00:09:21;;;;;;;38.90;27.33;;;9.00;80.20;;;;;;4952201;28;20043;-76
2022/01/13 00:11:48;;;;;;;41.38;27.98;;;9.00;80.30;;;;;;4951887;28;20561;-76
2022/01/13 00:17:07;;;;;;;43.45;28.02;;;9.00;80.40;;;;;;4969291;28;20027;-76
2022/01/13 00:19:35;;;;;;;40.55;27.95;;;9.00;80.40;;;;;;4969073;28;20027;-75
2022/01/13 00:24:28;;;;;;;42.05;27.42;;;9.00;80.50;;;;;;4969613;28;20270;-76
2022/01/13 00:26:55;;;;;;;46.72;28.08;;;9.00;81.00;;;;;;4951662;28;20042;-75
2022/01/13 00:29:30;;;;;;;41.15;27.45;;;9.00;80.50;;;;;;4969064;28;20787;-77
2022/01/13 00:31:56;;;;;;;43.58;27.70;;;9.00;80.50;;;;;;4951278;28;20664;-76
2022/01/13 00:34:21;;;;;;;42.78;27.38;;;9.00;80.50;;;;;;4951882;28;20027;-76
2022/01/13 00:36:47;;;;;;;43.35;28.13;;;9.00;80.30;;;;;;4951574;28;20023;-76
2022/01/13 00:39:14;;;;;;;42.25;27.45;;;9.00;80.40;;;;;;4951762;28;20062;-76
2022/01/13 00:41:40;;;;;;;38.38;26.25;;;9.00;80.50;;;;;;4951032;28;20027;-75
2022/01/13 00:44:07;;;;;;;41.13;26.73;;;9.00;80.60;;;;;;4951570;28;20035;-77
2022/01/13 00:46:45;;;;;;;44.00;28.02;;;9.00;80.50;;;;;;4968401;28;20042;-75
2022/01/13 00:49:13;;;;;;;42.10;26.88;;;9.00;80.50;;;;;;4968813;28;20053;-76
2022/01/13 00:51:39;;;;;;;43.05;27.58;;;9.00;80.60;;;;;;4948594;28;20122;-75
2022/01/13 00:54:06;;;;;;;41.58;27.58;;;9.00;80.70;;;;;;4950891;28;20050;-75
2022/01/13 00:56:33;;;;;;;40.55;26.35;;;9.00;80.70;;;;;;4950502;28;20122;-76
2022/01/13 00:58:59;;;;;;;42.45;26.92;;;8.90;80.80;;;;;;4967444;28;20819;-76
2022/01/13 01:01:25;;;;;;;44.88;27.60;;;9.00;80.80;;;;;;4967585;28;20545;-76
2022/01/13 01:03:50;;;;;;;37.03;24.30;;;9.00;80.80;;;;;;4951012;28;20034;-76
2022/01/13 01:06:16;;;;;;;39.13;25.38;;;9.00;80.80;;;;;;4951104;28;20035;-77
2022/01/13 01:08:42;;;;;;;40.95;26.00;;;9.00;80.80;;;;;;4950838;28;20031;-75
2022/01/13 01:11:08;;;;;;;41.28;25.45;;;9.00;80.80;;;;;;4950761;28;20038;-76
2022/01/13 01:13:35;;;;;;;40.95;25.38;;;9.00;80.80;;;;;;4968220;28;20394;-76
2022/01/13 01:16:06;;;;;;;37.78;24.50;;;9.00;80.90;;;;;;4950993;28;20026;-77
2022/01/13 01:18:50;;;;;;;42.15;25.33;;;9.00;80.90;;;;;;4968192;28;20110;-77
2022/01/13 01:29:16;;;;;;;38.95;24.88;;;8.90;80.90;;;;;;4968142;28;20026;-76
2022/01/13 01:31:49;;;;;;;37.83;23.70;;;9.00;81.00;;;;;;4950561;28;20029;-76
2022/01/13 01:34:48;;;;;;;39.05;24.08;;;8.90;80.80;;;;;;4967948;28;20030;-75
2022/01/13 01:37:16;;;;;;;41.33;24.90;;;9.00;81.00;;;;;;4968036;28;20057;-76
2022/01/13 01:39:47;;;;;;;40.22;25.27;;;9.00;81.00;;;;;;4968034;28;20019;-77
2022/01/13 01:42:14;;;;;;;41.10;25.27;;;9.00;81.00;;;;;;4950025;28;20026;-76
2022/01/13 01:44:43;;;;;;;38.60;24.35;;;9.00;81.10;;;;;;4967918;28;20066;-75
2022/01/13 01:47:13;;;;;;;40.03;25.73;;;9.00;81.20;;;;;;4950349;28;20039;-75
2022/01/13 01:49:42;;;;;;;39.38;24.85;;;9.00;81.30;;;;;;4950385;28;20122;-76
2022/01/13 01:52:10;;;;;;;42.00;25.58;;;9.00;81.30;;;;;;4950349;28;20490;-76
2022/01/13 01:54:35;;;;;;;39.47;23.98;;;9.00;81.20;;;;;;4967821;28;20022;-75
2022/01/13 01:57:01;;;;;;;38.00;25.27;;;9.00;81.20;;;;;;4950084;28;20117;-75
2022/01/13 01:59:31;;;;;;;39.72;25.67;;;9.00;81.10;;;;;;4950447;28;20033;-76
2022/01/13 02:01:57;;;;;;;39.10;23.92;;;9.00;81.10;;;;;;4967144;28;20128;-76
2022/01/13 02:04:25;;;;;;;38.90;24.70;;;9.00;81.10;;;;;;4950369;28;20049;-76
2022/01/13 02:06:52;;;;;;;40.97;24.55;;;9.00;81.10;;;;;;4967624;28;20019;-76
2022/01/13 02:09:18;;;;;;;39.38;24.27;;;9.00;81.10;;;;;;4950216;28;20494;-75
2022/01/13 02:11:48;;;;;;;37.20;24.27;;;9.00;81.10;;;;;;4949821;28;20031;-75
2022/01/13 02:16:53;;;;;;;38.15;24.05;;;9.00;81.20;;;;;;4974473;28;20058;-76
2022/01/13 02:19:19;;;;;;;38.40;23.90;;;9.00;81.00;;;;;;4956492;28;20866;-76
2022/01/13 02:21:45;;;;;;;38.85;22.88;;;9.00;80.90;;;;;;4956525;28;20487;-76
2022/01/13 02:24:10;;;;;;;36.72;23.15;;;9.00;80.90;;;;;;4956415;28;20054;-75
2022/01/13 02:26:36;;;;;;;39.78;23.42;;;9.00;80.90;;;;;;4974060;28;20441;-76
2022/01/13 02:29:02;;;;;;;38.50;23.90;;;9.00;80.70;;;;;;4974133;28;20037;-75
2022/01/13 02:31:28;;;;;;;34.85;22.13;;;9.00;80.70;;;;;;4956160;28;20500;-76
2022/01/13 02:33:54;;;;;;;36.53;22.55;;;9.00;80.70;;;;;;4956477;28;20031;-76
2022/01/13 02:36:22;;;;;;;41.28;22.75;;;8.90;80.70;;;;;;4956473;28;20050;-76
2022/01/13 02:38:53;;;;;;;37.13;22.88;;;9.00;80.80;;;;;;4956352;28;21101;-75
2022/01/13 02:41:23;;;;;;;34.95;22.02;;;8.90;80.70;;;;;;4955883;28;20498;-76
2022/01/13 02:43:54;;;;;;;38.95;24.08;;;9.00;80.70;;;;;;4973587;28;20064;-75
2022/01/13 02:46:43;;;;;;;36.63;22.92;;;8.90;80.70;;;;;;4973762;28;20027;-76
2022/01/13 02:49:14;;;;;;;33.72;22.27;;;8.90;80.70;;;;;;4956045;28;20033;-75
2022/01/13 02:51:41;;;;;;;37.50;23.17;;;9.00;81.30;;;;;;4973456;28;20038;-76
2022/01/13 02:54:08;;;;;;;34.25;21.83;;;8.90;80.70;;;;;;4973680;28;20030;-76
2022/01/13 02:56:34;;;;;;;36.17;22.13;;;8.90;80.70;;;;;;4956287;28;20376;-76
2022/01/13 02:59:00;;;;;;;35.80;22.83;;;8.90;80.70;;;;;;4956482;28;20565;-77
2022/01/13 03:01:26;;;;;;;35.08;21.70;;;9.00;80.70;;;;;;4955731;28;20126;-76
2022/01/13 03:03:52;;;;;;;34.20;22.13;;;8.90;80.70;;;;;;4956427;28;20129;-76
2022/01/13 03:06:31;;;;;;;38.33;23.08;;;8.90;80.70;;;;;;4956457;28;20117;-76
2022/01/13 03:08:57;;;;;;;35.90;22.25;;;8.90;80.80;;;;;;4973527;28;20031;-76
2022/01/13 03:11:30;;;;;;;38.58;22.77;;;8.90;80.80;;;;;;4955719;28;20126;-76
2022/01/13 03:13:55;;;;;;;35.33;22.25;;;8.90;80.70;;;;;;4973455;28;20562;-74
2022/01/13 03:16:21;;;;;;;32.83;21.08;;;8.90;80.70;;;;;;4956174;28;20150;-76
2022/01/13 03:18:47;;;;;;;33.72;20.65;;;9.00;80.90;;;;;;4956310;28;20517;-76
2022/01/13 03:21:12;;;;;;;32.90;21.02;;;9.00;80.90;;;;;;4955529;28;20035;-76
2022/01/13 03:23:38;;;;;;;34.50;21.17;;;8.90;80.90;;;;;;4956287;28;20118;-76
2022/01/13 03:26:04;;;;;;;32.75;21.45;;;8.90;80.80;;;;;;4952575;28;20033;-75
2022/01/13 03:28:39;;;;;;;33.85;20.30;;;8.90;80.80;;;;;;4953173;28;20038;-76
2022/01/13 03:31:06;;;;;;;33.42;21.42;;;8.90;80.80;;;;;;4952739;28;20086;-76
2022/01/13 03:33:32;;;;;;;33.63;20.90;;;8.90;80.70;;;;;;4953349;28;20041;-76
2022/01/13 03:35:59;;;;;;;33.85;21.38;;;8.90;80.70;;;;;;4970278;28;20019;-76
2022/01/13 03:38:26;;;;;;;32.83;20.48;;;8.90;80.70;;;;;;4970412;28;20023;-76
2022/01/13 03:40:51;;;;;;;32.10;20.35;;;8.90;80.70;;;;;;4970082;28;20039;-76
2022/01/13 03:43:17;;;;;;;30.88;20.42;;;8.90;80.60;;;;;;4970061;28;20041;-76
2022/01/13 03:45:44;;;;;;;34.85;21.17;;;8.90;80.70;;;;;;4952656;28;20058;-76
2022/01/13 03:48:13;;;;;;;34.60;21.65;;;8.90;80.70;;;;;;4952686;28;20459;-76
2022/01/13 03:50:39;;;;;;;33.60;21.40;;;8.90;80.70;;;;;;4952192;28;20034;-76
2022/01/13 03:53:28;;;;;;;32.40;20.88;;;8.90;80.70;;;;;;4952421;28;20030;-75
2022/01/13 03:56:31;;;;;;;33.85;21.30;;;8.90;80.80;;;;;;4952399;28;20022;-76
2022/01/13 03:59:15;;;;;;;31.30;20.35;;;8.90;80.70;;;;;;4955175;28;20027;-76
2022/01/13 04:02:12;;;;;;;31.65;20.75;;;8.90;80.70;;;;;;4942761;28;20027;-75
2022/01/13 04:04:41;;;;;;;34.45;20.05;;;8.90;80.80;;;;;;4932883;29;20050;-77
2022/01/13 04:07:12;;;;;;;33.63;20.80;;;8.90;80.80;;;;;;4933442;29;20182;-76
2022/01/13 04:09:40;;;;;;;32.47;21.00;;;8.90;80.80;;;;;;4933025;29;20041;-76
2022/01/13 04:12:08;;;;;;;31.50;19.45;;;8.80;80.80;;;;;;4932875;29;20566;-76
2022/01/13 04:14:46;;;;;;;31.00;19.75;;;8.90;80.80;;;;;;4950067;29;20496;-75
2022/01/13 04:17:15;;;;;;;32.70;19.88;;;8.90;80.80;;;;;;4933240;29;20776;-76
2022/01/13 04:19:41;;;;;;;31.85;20.55;;;8.90;80.80;;;;;;4933091;29;20030;-77
2022/01/13 04:22:08;;;;;;;32.70;20.48;;;8.90;80.80;;;;;;4932614;29;20035;-76
2022/01/13 04:24:36;;;;;;;33.05;20.58;;;8.90;80.70;;;;;;4933119;29;20027;-76
2022/01/13 04:27:01;;;;;;;32.80;20.48;;;8.90;80.70;;;;;;4932756;29;20447;-76
2022/01/13 04:29:35;;;;;;;30.42;20.20;;;8.90;80.70;;;;;;4932819;29;20071;-75
2022/01/13 04:32:00;;;;;;;33.85;20.60;;;8.90;80.60;;;;;;4932500;29;20031;-75
2022/01/13 04:34:26;;;;;;;31.98;20.70;;;8.90;80.50;;;;;;4932657;29;20395;-76
2022/01/13 04:36:54;;;;;;;31.52;19.92;;;8.90;80.50;;;;;;4931325;29;20387;-75
2022/01/13 04:39:21;;;;;;;35.92;21.85;;;8.90;80.60;;;;;;4949751;29;20033;-76
2022/01/13 04:41:48;;;;;;;32.75;20.73;;;8.90;80.60;;;;;;4932464;29;20031;-75
2022/01/13 04:44:18;;;;;;;33.72;20.85;;;8.90;80.50;;;;;;4932549;29;20035;-75
2022/01/13 04:46:45;;;;;;;33.75;21.00;;;8.90;80.60;;;;;;4932636;29;20122;-76
2022/01/13 04:49:11;;;;;;;32.03;20.00;;;8.90;80.50;;;;;;4932483;29;20055;-76
2022/01/13 04:51:38;;;;;;;31.67;20.42;;;8.90;80.50;;;;;;4948929;29;20078;-75
2022/01/13 04:54:04;;;;;;;34.22;20.85;;;8.90;80.50;;;;;;4932482;29;20028;-76
2022/01/13 04:56:38;;;;;;;34.20;21.67;;;8.90;80.50;;;;;;4932457;29;20030;-76
2022/01/13 04:59:04;;;;;;;32.92;20.83;;;8.90;80.50;;;;;;4950101;29;20055;-77
2022/01/13 05:01:30;;;;;;;34.75;20.88;;;8.90;80.50;;;;;;4948926;29;20066;-75
2022/01/13 05:03:56;;;;;;;33.80;20.75;;;8.90;80.50;;;;;;4932320;29;20558;-76
2022/01/13 05:06:22;;;;;;;34.47;19.90;;;8.90;80.50;;;;;;4932076;29;20031;-75
2022/01/13 05:08:48;;;;;;;32.92;19.35;;;8.90;80.50;;;;;;4932271;29;20118;-76
2022/01/13 05:11:14;;;;;;;31.85;19.60;;;8.90;80.60;;;;;;4931819;29;20890;-76
2022/01/13 05:13:40;;;;;;;32.50;19.35;;;8.90;80.60;;;;;;4949309;29;20107;-76
2022/01/13 05:16:08;;;;;;;34.25;20.80;;;8.90;81.10;;;;;;4948723;29;20102;-75
2022/01/13 05:21:05;;;;;;;33.55;20.73;;;8.80;80.60;;;;;;4949189;29;20487;-77
2022/01/13 05:23:31;;;;;;;32.88;19.88;;;8.90;80.70;;;;;;4932400;29;20122;-77
2022/01/13 05:25:57;;;;;;;32.92;19.65;;;8.90;80.70;;;;;;4949727;29;20114;-77
2022/01/13 05:28:23;;;;;;;32.03;18.33;;;8.90;80.60;;;;;;4949014;29;20034;-75
2022/01/13 05:30:49;;;;;;;34.75;20.55;;;8.90;80.70;;;;;;4948561;29;20035;-76
2022/01/13 05:33:14;;;;;;;31.50;19.25;;;8.90;80.70;;;;;;4948685;29;20034;-76
2022/01/13 05:35:40;;;;;;;32.28;19.70;;;8.90;80.70;;;;;;4931808;29;20023;-76
2022/01/13 05:38:08;;;;;;;34.33;20.77;;;8.90;80.70;;;;;;4931523;29;20031;-75
2022/01/13 05:40:35;;;;;;;32.47;20.30;;;8.90;80.70;;;;;;4931410;29;20027;-76
2022/01/13 05:43:02;;;;;;;31.55;18.83;;;8.90;80.70;;;;;;4933069;28;20031;-75
2022/01/13 05:45:29;;;;;;;32.10;19.08;;;8.90;80.70;;;;;;4950935;28;20031;-76
2022/01/13 05:47:58;;;;;;;31.58;19.17;;;8.90;80.70;;;;;;4950970;28;20478;-76
2022/01/13 05:50:24;;;;;;;33.00;20.58;;;8.90;80.80;;;;;;4968408;28;20038;-77
2022/01/13 05:52:50;;;;;;;32.60;19.20;;;8.90;80.80;;;;;;4968973;28;20030;-76
2022/01/13 05:55:16;;;;;;;32.65;19.67;;;8.90;80.80;;;;;;4970160;28;20053;-76
2022/01/13 05:57:42;;;;;;;31.75;19.08;;;8.90;80.80;;;;;;4964139;28;20038;-76
2022/01/13 06:00:11;;;;;;;32.30;18.42;;;8.90;80.90;;;;;;4950635;28;20461;-77
2022/01/13 06:02:37;;;;;;;32.78;18.60;;;8.90;80.90;;;;;;4968705;28;20034;-76
2022/01/13 06:05:03;;;;;;;32.45;19.73;;;8.90;80.90;;;;;;4973117;28;20026;-78
2022/01/13 06:07:29;;;;;;;33.00;19.17;;;8.90;80.90;;;;;;4972064;28;20023;-77
2022/01/13 06:09:54;;;;;;;35.72;19.60;;;8.90;80.90;;;;;;4962603;28;20411;-76
2022/01/13 06:12:31;;;;;;;33.83;19.58;;;8.90;81.00;;;;;;4954825;28;20642;-77
2022/01/13 06:14:56;;;;;;;33.25;20.13;;;8.90;81.00;;;;;;4990571;28;20046;-76
2022/01/13 06:17:22;;;;;;;34.17;19.75;;;8.90;80.90;;;;;;4989481;28;20054;-77
2022/01/13 06:19:47;;;;;;;33.38;19.50;;;8.90;80.90;;;;;;4973736;28;20398;-76
2022/01/13 06:22:13;;;;;;;38.00;20.65;;;8.90;80.90;;;;;;4971650;28;20034;-76
2022/01/13 06:24:38;;;;;;;32.42;19.20;;;8.90;80.80;;;;;;4990269;28;20030;-76
2022/01/13 06:27:04;;;;;;;45.20;20.40;;;8.90;80.90;;;;;;4990011;28;20161;-76
2022/01/13 06:29:29;;;;;;;42.58;21.33;;;8.90;80.60;;;;;;4972723;28;20125;-77
2022/01/13 06:31:56;;;;;;;37.40;21.65;;;8.90;80.60;;;;;;4989491;28;20185;-77
2022/01/13 06:34:22;;;;;;;43.20;23.75;;;8.90;80.70;;;;;;4972795;28;20033;-77
2022/01/13 06:36:47;;;;;;;46.03;24.40;;;8.90;80.80;;;;;;4972804;28;20026;-77
2022/01/13 06:39:13;;;;;;;44.63;23.77;;;8.80;80.30;;;;;;4990039;28;20037;-76
2022/01/13 06:41:40;;;;;;;39.33;22.65;;;8.80;80.50;;;;;;4972869;28;20037;-79
2022/01/13 06:44:06;;;;;;;41.03;23.00;;;8.80;80.50;;;;;;4990577;28;20033;-76
2022/01/13 06:46:32;;;;;;;41.22;23.17;;;8.80;80.60;;;;;;4972700;28;20026;-78
2022/01/13 06:48:58;;;;;;;43.15;22.77;;;8.90;80.70;;;;;;4973035;28;20092;-76
2022/01/13 06:51:23;;;;;;;40.78;23.15;;;8.80;80.60;;;;;;4989519;28;20062;-76
2022/01/13 06:53:49;;;;;;;40.35;22.33;;;8.80;80.60;;;;;;4972762;28;20030;-78
2022/01/13 06:56:14;;;;;;;40.90;22.75;;;8.80;80.60;;;;;;4989869;28;20037;-76
2022/01/13 06:58:44;;;;;;;39.72;21.65;;;8.80;80.70;;;;;;4972740;28;20069;-76
2022/01/13 07:01:09;;;;;;;37.22;22.05;;;8.80;80.60;;;;;;4974627;28;20573;-77
2022/01/13 07:03:35;;;;;;;39.03;22.67;;;8.80;80.60;;;;;;4977093;28;20125;-76
2022/01/13 07:06:00;;;;;;;41.97;24.23;;;8.80;80.60;;;;;;4976058;28;20591;-77
2022/01/13 07:08:26;;;;;;;40.83;23.35;;;8.80;80.70;;;;;;4976160;28;20034;-77
2022/01/13 07:10:52;;;;;;;42.17;22.95;;;8.80;80.70;;;;;;4975651;28;20908;-77
2022/01/13 07:13:17;;;;;;;43.47;23.83;;;8.80;80.70;;;;;;4976087;28;20038;-76
2022/01/13 07:15:46;;;;;;;43.47;23.85;;;8.90;80.70;;;;;;4993674;28;20023;-76
2022/01/13 07:18:13;;;;;;;44.70;24.23;;;8.80;80.70;;;;;;4976392;28;20022;-76
2022/01/13 07:20:40;;;;;;;44.25;25.02;;;8.90;80.80;;;;;;4974948;28;20306;-76
2022/01/13 07:23:06;;;;;;;40.53;22.83;;;8.80;80.70;;;;;;4975953;28;20747;-77
2022/01/13 07:25:31;;;;;;;52.65;24.27;;;8.80;80.70;;;;;;4975476;28;20066;-77
2022/01/13 07:27:58;;;;;;;45.25;24.40;;;8.80;80.70;;;;;;4976065;28;20062;-76
2022/01/13 07:30:23;;;;;;;41.80;23.80;;;8.90;80.80;;;;;;4975432;28;20026;-78
2022/01/13 07:32:49;;;;;;;44.13;24.30;;;8.80;80.70;;;;;;4993497;28;20041;-76
2022/01/13 07:35:15;;;;;;;41.28;23.55;;;8.90;80.70;;;;;;4975401;28;20080;-77
2022/01/13 07:37:42;;;;;;;42.88;23.40;;;8.80;80.70;;;;;;4975770;28;20045;-76
2022/01/13 07:40:13;;;;;;;40.83;23.27;;;8.90;80.80;;;;;;4975315;28;20053;-77
2022/01/13 07:42:42;;;;;;;43.33;24.00;;;8.90;80.80;;;;;;4975989;28;20052;-76
2022/01/13 07:45:09;;;;;;;41.05;22.98;;;8.80;80.80;;;;;;4975404;28;20034;-77
2022/01/13 07:47:34;;;;;;;38.67;23.00;;;8.90;80.90;;;;;;4976209;28;20041;-77
2022/01/13 07:50:00;;;;;;;42.78;23.35;;;8.90;80.90;;;;;;4975034;28;20034;-76
2022/01/13 07:52:27;;;;;;;41.63;22.85;;;8.90;80.80;;;;;;4992535;28;20030;-77
2022/01/13 07:54:53;;;;;;;42.58;24.80;;;8.90;80.90;;;;;;4975275;28;20026;-76
2022/01/13 07:57:18;;;;;;;39.92;22.73;;;8.80;80.80;;;;;;4975229;28;20026;-78
2022/01/13 07:59:44;;;;;;;42.38;22.58;;;8.80;80.80;;;;;;4974576;28;20030;-76
2022/01/13 08:02:09;;;;;;;41.95;23.70;;;8.80;80.80;;;;;;4992422;28;20624;-77
2022/01/13 08:04:35;;;;;;;42.92;23.17;;;8.80;80.80;;;;;;4974725;28;20037;-77
2022/01/13 08:07:00;;;;;;;43.55;23.45;;;8.80;80.90;;;;;;4992652;28;20030;-76
2022/01/13 08:09:26;;;;;;;41.10;23.63;;;8.80;80.90;;;;;;4975177;28;20037;-76
2022/01/13 08:11:51;;;;;;;43.03;23.67;;;8.80;81.00;;;;;;4974923;28;20042;-76
2022/01/13 08:14:17;;;;;;;42.08;22.38;;;8.80;80.90;;;;;;4975296;28;20018;-76
2022/01/13 08:16:44;;;;;;;41.70;23.58;;;8.80;80.90;;;;;;4975056;28;20092;-78
2022/01/13 08:21:54;;;;;;;44.10;24.05;;;8.80;80.70;;;;;;4992194;28;20092;-76
2022/01/13 08:24:20;;;;;;;42.80;23.30;;;8.80;80.70;;;;;;4992175;28;20034;-77
2022/01/13 08:26:46;;;;;;;43.17;23.08;;;8.80;80.80;;;;;;4975667;28;20027;-77
2022/01/13 08:29:11;;;;;;;41.42;22.92;;;8.80;80.80;;;;;;4974673;28;20034;-76
2022/01/13 08:31:37;;;;;;;41.45;22.63;;;8.80;80.80;;;;;;4991482;28;20030;-76
2022/01/13 08:34:03;;;;;;;41.75;23.25;;;8.90;80.80;;;;;;4991953;28;20125;-76
2022/01/13 08:36:29;;;;;;;41.58;23.48;;;8.90;80.80;;;;;;4974433;28;20478;-76
2022/01/13 08:38:54;;;;;;;40.05;21.88;;;8.80;80.80;;;;;;4974544;28;20037;-77
2022/01/13 08:41:20;;;;;;;40.63;22.60;;;8.90;80.80;;;;;;4973753;28;20513;-76
2022/01/13 08:43:45;;;;;;;42.38;22.73;;;8.80;80.80;;;;;;4974433;28;20031;-76
2022/01/13 08:46:11;;;;;;;43.60;23.05;;;8.80;80.80;;;;;;4974709;28;20057;-76
2022/01/13 08:48:37;;;;;;;43.40;23.42;;;8.80;80.70;;;;;;4992048;28;20861;-77
2022/01/13 08:51:04;;;;;;;42.60;23.23;;;8.80;80.80;;;;;;4990809;28;20030;-77
2022/01/13 08:53:30;;;;;;;40.95;23.75;;;8.80;80.80;;;;;;4991385;28;20022;-77
2022/01/13 08:55:55;;;;;;;43.90;23.10;;;8.90;80.90;;;;;;4974253;28;20077;-76
2022/01/13 08:58:22;;;;;;;42.60;22.13;;;8.80;80.90;;;;;;4991468;28;20030;-76
2022/01/13 09:00:49;;;;;;;40.80;22.85;;;8.80;80.80;;;;;;4973873;28;20397;-76
2022/01/13 09:03:15;;;;;;;42.38;22.88;;;8.80;80.90;;;;;;4974543;28;20026;-77
2022/01/13 09:05:42;;;;;;;42.28;23.80;;;8.90;81.00;;;;;;4973498;28;20113;-76
2022/01/13 09:08:10;;;;;;;41.42;22.83;;;8.90;81.00;;;;;;4974435;28;20031;-77
2022/01/13 09:10:39;;;;;;;41.88;22.55;;;8.80;80.90;;;;;;4945433;28;20086;-76
2022/01/13 09:13:06;;;;;;;43.00;22.10;;;8.80;81.00;;;;;;4935085;29;20045;-76
2022/01/13 09:15:37;;;;;;;41.45;23.48;;;8.90;81.00;;;;;;4934856;29;20023;-76
2022/01/13 09:18:10;;;;;;;44.20;24.20;;;8.80;81.00;;;;;;4935052;29;20134;-76
2022/01/13 09:20:40;;;;;;;42.50;23.67;;;8.80;81.00;;;;;;4934330;29;20558;-76
2022/01/13 09:23:06;;;;;;;44.05;24.02;;;8.80;81.00;;;;;;4934536;29;20553;-76
2022/01/13 09:25:32;;;;;;;40.72;22.90;;;8.80;81.00;;;;;;4935591;29;20098;-77
2022/01/13 09:27:58;;;;;;;45.65;22.88;;;8.80;80.90;;;;;;4934831;29;20118;-76
2022/01/13 09:30:24;;;;;;;42.00;22.25;;;8.80;80.90;;;;;;4934985;29;20570;-77
2022/01/13 09:32:51;;;;;;;39.88;23.25;;;8.90;81.00;;;;;;4934734;29;20031;-76
2022/01/13 09:35:16;;;;;;;41.88;22.92;;;8.80;81.00;;;;;;4952549;29;20475;-77
2022/01/13 09:37:42;;;;;;;43.15;23.67;;;8.90;80.90;;;;;;4934761;29;20032;-76
2022/01/13 09:40:09;;;;;;;44.55;23.48;;;8.90;81.00;;;;;;4934811;29;20491;-77
2022/01/13 09:42:38;;;;;;;45.78;23.50;;;8.80;81.00;;;;;;4951953;29;20053;-76
2022/01/13 09:45:05;;;;;;;43.58;23.70;;;8.80;81.00;;;;;;4935095;29;20091;-76
2022/01/13 09:47:32;;;;;;;43.25;23.67;;;8.80;81.10;;;;;;4935223;29;20027;-77
2022/01/13 09:50:00;;;;;;;45.97;24.40;;;8.80;81.00;;;;;;4934582;29;20074;-77
2022/01/13 09:52:27;;;;;;;43.47;24.30;;;8.80;81.10;;;;;;4934269;29;20114;-77
2022/01/13 09:54:52;;;;;;;43.38;23.73;;;8.80;81.00;;;;;;4935404;29;20031;-76
2022/01/13 09:57:18;;;;;;;46.60;25.33;;;8.80;81.00;;;;;;4951937;29;20558;-76
2022/01/13 09:59:43;;;;;;;44.20;23.52;;;8.80;81.10;;;;;;4951914;29;20038;-77
2022/01/13 10:02:10;;;;;;;44.95;24.23;;;8.80;81.00;;;;;;4934689;29;20027;-76
2022/01/13 10:04:44;;;;;;;46.15;24.63;;;8.80;81.00;;;;;;4951258;29;20063;-76
2022/01/13 10:07:13;;;;;;;45.75;24.15;;;8.90;81.00;;;;;;4951447;29;20031;-76
2022/01/13 10:09:57;;;;;;;47.85;24.63;;;8.90;80.90;;;;;;4934270;29;20027;-76
2022/01/13 10:12:24;;;;;;;44.03;23.95;;;8.90;80.90;;;;;;4933552;29;20027;-77
2022/01/13 10:17:24;;;;;;;47.05;24.80;;;8.80;80.90;;;;;;4951236;29;20042;-76
2022/01/13 10:19:50;;;;;;;48.03;25.10;;;8.80;80.90;;;;;;4933725;29;20773;-77
2022/01/13 10:22:19;;;;;;;44.63;25.27;;;8.80;80.90;;;;;;4951497;29;20518;-77
2022/01/13 10:24:52;;;;;;;48.05;25.77;;;8.80;81.00;;;;;;4951623;29;20027;-77
2022/01/13 10:27:20;;;;;;;48.70;26.25;;;8.80;81.00;;;;;;4934443;29;20035;-77
2022/01/13 10:29:55;;;;;;;42.67;23.27;;;8.80;81.00;;;;;;4934507;29;20760;-76
2022/01/13 10:32:21;;;;;;;47.40;26.15;;;8.80;81.00;;;;;;4933608;29;20575;-77
2022/01/13 10:34:59;;;;;;;48.83;27.25;;;8.80;81.00;;;;;;4936110;29;20031;-77
2022/01/13 10:37:33;;;;;;;46.72;25.95;;;8.80;80.90;;;;;;4937515;29;20034;-76
2022/01/13 10:40:19;;;;;;;46.70;26.13;;;8.90;80.90;;;;;;4937787;29;20115;-77
2022/01/13 10:45:21;;;;;;;49.10;26.25;;;8.80;80.90;;;;;;4955676;29;20042;-76
2022/01/13 10:47:51;;;;;;;51.88;28.73;;;8.80;80.90;;;;;;4938293;29;20486;-76
2022/01/13 10:50:18;;;;;;;48.25;26.63;;;8.80;80.90;;;;;;4937377;29;20053;-76
2022/01/13 10:52:44;;;;;;;49.50;27.65;;;8.80;81.00;;;;;;4954540;29;20039;-76
2022/01/13 10:55:17;;;;;;;51.70;27.38;;;8.80;80.90;;;;;;4937924;29;20091;-76
2022/01/13 10:57:44;;;;;;;50.83;27.70;;;8.80;80.90;;;;;;4937756;29;20422;-76
2022/01/13 11:00:16;;;;;;;52.65;28.38;;;8.80;80.90;;;;;;4937405;29;20402;-77
2022/01/13 11:02:41;;;;;;;52.17;28.60;;;8.80;80.90;;;;;;4937395;29;20027;-76
2022/01/13 11:05:10;;;;;;;52.03;28.23;;;8.80;80.90;;;;;;4937148;29;20977;-76
2022/01/13 11:07:36;;;;;;;52.20;28.17;;;8.80;80.90;;;;;;4937895;29;20031;-77
2022/01/13 11:10:04;;;;;;;52.83;27.90;;;8.80;80.90;;;;;;4937266;29;20030;-76
2022/01/13 11:12:40;;;;;;;50.42;28.05;;;8.80;80.90;;;;;;4954181;29;20110;-76
2022/01/13 11:15:12;;;;;;;52.45;28.15;;;8.80;80.80;;;;;;4937556;29;20033;-76
2022/01/13 11:17:38;;;;;;;50.53;27.98;;;8.80;80.80;;;;;;4937928;29;20038;-77
2022/01/13 11:20:30;;;;;;;50.00;28.52;;;8.80;80.90;;;;;;4936703;29;20031;-77
2022/01/13 11:22:57;;;;;;;49.35;27.65;;;8.80;81.00;;;;;;4935227;29;20043;-77
2022/01/13 11:25:26;;;;;;;52.85;28.98;;;8.80;80.90;;;;;;4937303;29;20177;-76
2022/01/13 11:27:52;;;;;;;51.95;28.48;;;8.80;80.90;;;;;;4954649;29;20114;-77
2022/01/13 11:30:21;;;;;;;54.58;28.10;;;8.80;80.90;;;;;;4954418;29;20539;-77
2022/01/13 11:32:48;;;;;;;53.08;30.13;;;8.80;80.80;;;;;;4936373;29;20482;-76
2022/01/13 11:35:22;;;;;;;52.80;29.10;;;8.80;80.80;;;;;;4937323;29;20023;-77
2022/01/13 11:37:50;;;;;;;52.75;28.63;;;8.80;80.90;;;;;;4936741;29;20038;-76
2022/01/13 11:40:28;;;;;;;54.28;29.88;;;9.00;81.00;;;;;;4936798;29;20021;-76
2022/01/13 11:42:59;;;;;;;52.60;28.70;;;8.80;80.90;;;;;;4954256;29;20090;-77
2022/01/13 11:45:25;;;;;;;51.65;28.80;;;8.80;80.90;;;;;;4954128;28;20078;-76
2022/01/13 11:48:30;;;;;;;53.50;27.83;;;8.80;80.80;;;;;;4936417;29;20035;-76
2022/01/13 11:51:20;;;;;;;50.90;28.02;;;8.80;80.80;;;;;;4912694;29;20064;-77
2022/01/13 11:54:04;;;;;;;54.67;29.33;;;8.80;80.80;;;;;;4897681;29;20035;-77
2022/01/13 11:56:30;;;;;;;52.42;28.23;;;8.80;80.80;;;;;;4927761;29;20031;-76
2022/01/13 11:58:56;;;;;;;51.45;28.08;;;8.80;80.90;;;;;;4936735;29;20034;-77
2022/01/13 12:01:34;;;;;;;55.38;28.73;;;8.80;80.80;;;;;;4953108;29;20095;-76
2022/01/13 12:04:03;;;;;;;52.45;27.45;;;8.80;80.90;;;;;;4936233;29;20445;-77
2022/01/13 12:06:46;;;;;;;46.60;26.40;;;8.80;80.80;;;;;;4953824;29;20143;-77
2022/01/13 12:09:32;;;;;;;51.17;27.50;;;8.80;80.80;;;;;;4953886;29;20094;-76
2022/01/13 12:11:58;;;;;;;52.00;27.70;;;8.80;80.90;;;;;;4929226;29;20514;-78
2022/01/13 12:14:30;;;;;;;49.47;27.33;;;8.80;80.90;;;;;;4936244;29;20475;-77
2022/01/13 12:17:10;;;;;;;50.25;27.10;;;8.80;80.90;;;;;;4936388;29;20031;-77
2022/01/13 12:19:47;;;;;;;50.00;26.50;;;8.80;80.90;;;;;;4935889;29;20112;-77
2022/01/13 12:22:26;;;;;;;48.40;25.42;;;8.80;80.80;;;;;;4953413;29;20019;-76
2022/01/13 12:24:59;;;;;;;50.00;25.95;;;8.80;80.80;;;;;;4936140;29;20031;-76
2022/01/13 12:27:38;;;;;;;51.47;26.15;;;8.80;80.80;;;;;;4936502;29;20503;-76
2022/01/13 12:30:22;;;;;;;48.00;24.88;;;8.80;80.80;;;;;;4936248;29;20031;-76
2022/01/13 12:32:51;;;;;;;50.63;27.00;;;8.80;80.70;;;;;;4935849;29;20038;-76
2022/01/13 12:35:33;;;;;;;48.90;26.58;;;8.80;80.60;;;;;;4953222;29;20020;-77
2022/01/13 12:38:21;;;;;;;50.55;27.13;;;8.80;80.60;;;;;;4936406;29;20097;-77
2022/01/13 12:40:53;;;;;;;50.67;26.50;;;8.80;80.70;;;;;;4953106;29;20106;-75
2022/01/13 12:46:08;;;;;;;47.65;26.05;;;8.80;80.60;;;;;;4953561;29;20046;-77
2022/01/13 12:48:35;;;;;;;49.70;25.67;;;8.80;80.60;;;;;;4953252;29;20062;-77
2022/01/13 12:51:01;;;;;;;49.65;25.63;;;8.80;80.60;;;;;;4935832;29;20118;-77
2022/01/13 12:53:30;;;;;;;51.15;26.52;;;8.80;80.60;;;;;;4936087;29;20063;-77
2022/01/13 12:56:13;;;;;;;52.65;26.65;;;8.80;80.60;;;;;;4935747;29;20442;-76
2022/01/13 12:58:44;;;;;;;50.85;26.13;;;8.80;80.60;;;;;;4934865;29;20546;-76
2022/01/13 13:01:13;;;;;;;48.05;25.73;;;8.80;80.60;;;;;;4935672;29;20167;-76
2022/01/13 13:03:39;;;;;;;51.05;26.38;;;8.80;80.60;;;;;;4952997;29;20058;-77
2022/01/13 13:06:10;;;;;;;47.13;25.25;;;8.80;80.60;;;;;;4935728;29;20506;-77
2022/01/13 13:08:36;;;;;;;49.60;26.13;;;8.70;80.60;;;;;;4935789;29;20137;-76
2022/01/13 13:11:01;;;;;;;49.72;26.80;;;8.80;80.70;;;;;;4934727;29;20817;-77
2022/01/13 13:13:29;;;;;;;51.33;27.13;;;8.80;80.70;;;;;;4935507;29;20065;-76